Time;durP1;ratioP1;P1;durP2;ratioP2;P2;SDS_P1;SDS_P2;PMS_P1;PMS_P2;Temp;Humidity;BMP_temperature;BMP_pressure;BME280_temperature;BME280_humidity;BME280_pressure;Samples;Min_cycle;Max_cycle;Signal;HPM_P1;HPM_P2
2022/05/06 00:01:34;;;;;;;21.55;19.25;;;;;;;14.17;80.65;101008.97;4992835;28;20401;-72
2022/05/06 00:03:59;;;;;;;27.40;21.27;;;;;;;14.17;80.38;101002.69;4990856;28;20406;-72
2022/05/06 00:06:24;;;;;;;30.83;22.20;;;;;;;14.17;80.20;101003.50;4992584;28;20772;-72
2022/05/06 00:08:50;;;;;;;27.57;21.57;;;;;;;14.15;80.29;101005.69;4991815;28;20410;-72
2022/05/06 00:11:15;;;;;;;30.10;22.80;;;;;;;14.13;80.44;101010.53;4992309;28;20501;-72
2022/05/06 00:13:40;;;;;;;28.07;21.37;;;;;;;14.14;80.87;101004.03;4991781;28;20486;-72
2022/05/06 00:16:06;;;;;;;27.60;21.53;;;;;;;14.11;80.96;100999.09;4992404;28;20399;-72
2022/05/06 00:18:31;;;;;;;24.57;20.77;;;;;;;14.10;81.11;100996.59;4990957;28;20489;-72
2022/05/06 00:20:57;;;;;;;29.70;21.87;;;;;;;14.06;81.05;101004.50;4989271;28;20406;-72
2022/05/06 00:23:25;;;;;;;24.77;20.83;;;;;;;14.02;81.14;101000.63;4992228;28;20952;-72
2022/05/06 00:25:50;;;;;;;24.55;21.52;;;;;;;13.99;81.30;101004.66;4999834;28;20410;-72
2022/05/06 00:28:16;;;;;;;26.42;20.27;;;;;;;14.00;81.21;100995.41;4988700;28;20406;-72
2022/05/06 00:30:42;;;;;;;28.45;20.50;;;;;;;14.02;81.42;100997.91;4990874;28;20425;-72
2022/05/06 00:33:09;;;;;;;31.07;22.43;;;;;;;14.04;81.39;100995.72;4992207;28;20727;-72
2022/05/06 00:35:38;;;;;;;26.95;23.15;;;;;;;14.07;81.09;100994.38;4992320;28;20394;-72
2022/05/06 00:38:04;;;;;;;31.20;22.70;;;;;;;14.07;81.60;100999.84;4988845;28;20501;-72
2022/05/06 00:40:30;;;;;;;28.63;23.45;;;;;;;14.09;81.41;101006.69;5002926;28;20394;-72
2022/05/06 00:42:56;;;;;;;28.65;22.35;;;;;;;14.11;81.27;101000.97;4992213;28;20387;-72
2022/05/06 00:45:22;;;;;;;29.63;22.77;;;;;;;14.11;80.99;101000.97;4992134;28;20761;-72
2022/05/06 00:47:48;;;;;;;26.83;21.83;;;;;;;14.11;80.91;101000.97;4992070;28;20394;-72
2022/05/06 00:50:15;;;;;;;25.35;20.17;;;;;;;14.09;80.75;100995.81;4981568;28;20421;-72
2022/05/06 00:52:40;;;;;;;24.08;20.88;;;;;;;14.07;81.12;101003.38;4992192;28;20406;-72
2022/05/06 00:55:06;;;;;;;25.23;20.85;;;;;;;14.05;80.92;101000.09;4991959;28;20752;-72
2022/05/06 00:57:32;;;;;;;25.67;20.75;;;;;;;14.01;81.10;100997.06;4991975;28;20402;-72
2022/05/06 01:00:23;;;;;;;29.77;22.67;;;;;;;14.01;80.63;100997.06;4990021;28;20410;-72
2022/05/06 01:02:47;;;;;;;30.85;22.35;;;;;;;14.02;80.93;101000.63;4991431;28;20422;-72
2022/05/06 01:05:14;;;;;;;29.33;23.02;;;;;;;14.02;80.97;100993.28;4991840;28;20896;-72
2022/05/06 01:07:39;;;;;;;31.20;23.00;;;;;;;14.01;80.92;100988.88;4976091;28;20923;-72
2022/05/06 01:10:05;;;;;;;27.77;22.73;;;;;;;14.02;80.79;100989.72;4991135;28;20422;-72
2022/05/06 01:12:31;;;;;;;28.83;24.25;;;;;;;14.03;80.89;100997.63;4990961;28;20402;-72
2022/05/06 01:14:56;;;;;;;35.35;23.13;;;;;;;14.01;80.67;100988.06;4992594;28;20920;-72
2022/05/06 01:17:22;;;;;;;33.70;24.23;;;;;;;13.98;80.76;100996.75;4996083;28;20403;-72
2022/05/06 01:19:48;;;;;;;26.55;22.42;;;;;;;13.98;80.86;100988.56;4992880;28;20551;-72
2022/05/06 01:22:14;;;;;;;26.20;21.60;;;;;;;13.95;80.89;100986.34;4995760;28;20485;-72
2022/05/06 01:24:40;;;;;;;29.58;20.65;;;;;;;13.92;80.85;100990.41;4994862;28;20817;-72
2022/05/06 01:27:16;;;;;;;25.85;20.45;;;;;;;13.92;80.78;100995.88;4978542;28;20492;-72
2022/05/06 01:29:43;;;;;;;25.47;20.07;;;;;;;13.87;80.75;100987.63;4994250;28;20433;-72
2022/05/06 01:32:10;;;;;;;26.17;21.25;;;;;;;13.85;81.05;100991.69;4994746;28;20414;-72
2022/05/06 01:34:40;;;;;;;23.77;19.40;;;;;;;13.85;80.88;100994.41;4995656;28;20387;-72
2022/05/06 01:37:07;;;;;;;25.10;20.73;;;;;;;13.85;80.88;100987.06;4994555;28;20505;-72
2022/05/06 01:39:36;;;;;;;22.95;19.55;;;;;;;13.86;80.75;100988.69;4987915;28;20436;-72
2022/05/06 01:42:08;;;;;;;26.13;21.77;;;;;;;13.86;80.85;100996.06;4995261;28;20502;-72
2022/05/06 01:44:46;;;;;;;28.50;20.73;;;;;;;13.86;80.56;100988.69;4995332;28;20400;-72
2022/05/06 01:47:19;;;;;;;24.45;20.25;;;;;;;13.85;80.89;100995.22;4993562;28;20426;-72
2022/05/06 01:49:46;;;;;;;24.15;20.30;;;;;;;13.82;80.85;100989.47;4993371;28;20417;-72
2022/05/06 01:52:19;;;;;;;25.15;19.77;;;;;;;13.79;80.80;100995.41;4990312;28;20862;-72
2022/05/06 01:54:45;;;;;;;23.63;19.80;;;;;;;13.80;80.92;100989.69;4995139;28;20417;-72
2022/05/06 01:57:10;;;;;;;29.08;19.38;;;;;;;13.80;80.88;100986.97;5009395;28;20417;-72
2022/05/06 01:59:35;;;;;;;26.37;19.83;;;;;;;13.81;80.67;100990.53;4990974;28;20411;-73
2022/05/06 02:02:01;;;;;;;22.50;19.63;;;;;;;13.80;80.80;100986.97;4986011;28;20396;-72
2022/05/06 02:07:10;;;;;;;24.75;19.55;;;;;;;13.82;80.58;100992.19;4988324;28;20452;-72
2022/05/06 02:09:35;;;;;;;27.70;20.67;;;;;;;13.84;80.69;100992.75;4994096;28;20924;-72
2022/05/06 02:12:01;;;;;;;22.13;18.87;;;;;;;13.82;80.62;100990.28;4994843;28;20402;-72
2022/05/06 02:14:27;;;;;;;28.38;19.95;;;;;;;13.77;80.72;100992.94;4994854;28;20477;-72
2022/05/06 02:16:53;;;;;;;29.27;20.48;;;;;;;13.76;80.79;100999.47;4994029;28;20418;-72
2022/05/06 02:19:18;;;;;;;23.63;19.45;;;;;;;13.77;81.03;100994.81;4990032;28;20465;-72
2022/05/06 02:21:43;;;;;;;25.07;18.97;;;;;;;13.77;80.90;100997.56;5009806;28;20969;-72
2022/05/06 02:24:09;;;;;;;24.90;20.63;;;;;;;13.80;80.79;100991.59;4994326;28;20402;-72
2022/05/06 02:26:34;;;;;;;24.20;19.23;;;;;;;13.78;80.83;100994.59;4993151;28;20430;-72
2022/05/06 02:28:59;;;;;;;20.73;18.20;;;;;;;13.77;80.64;100998.38;4992494;28;20410;-72
2022/05/06 02:34:15;;;;;;;25.25;19.73;;;;;;;13.78;80.88;100982.88;4994399;28;20481;-72
2022/05/06 02:36:40;;;;;;;24.15;19.17;;;;;;;13.77;80.94;100987.50;4993612;28;20406;-72
2022/05/06 02:39:06;;;;;;;23.13;19.47;;;;;;;13.77;81.08;100990.22;4993187;28;20414;-72
2022/05/06 02:41:31;;;;;;;27.05;20.13;;;;;;;13.76;81.24;100993.19;4994332;28;20390;-72
2022/05/06 02:43:56;;;;;;;23.33;19.50;;;;;;;13.75;81.13;100989.66;4994095;28;20398;-72
2022/05/06 02:46:22;;;;;;;29.47;20.63;;;;;;;13.77;80.53;100987.50;4993413;28;20433;-72
2022/05/06 02:48:47;;;;;;;24.23;19.02;;;;;;;13.75;80.64;100988.81;4994271;28;20405;-72
2022/05/06 02:51:13;;;;;;;24.60;18.97;;;;;;;13.74;80.89;100992.63;4994197;28;20465;-72
2022/05/06 02:53:38;;;;;;;24.98;20.02;;;;;;;13.73;80.83;100993.72;5006480;28;20424;-72
2022/05/06 02:56:04;;;;;;;24.73;20.63;;;;;;;13.71;81.11;100999.41;4978294;28;20401;-72
2022/05/06 02:58:29;;;;;;;29.10;20.95;;;;;;;13.71;81.07;100993.94;4989383;28;20446;-72
2022/05/06 03:00:54;;;;;;;32.70;21.93;;;;;;;13.74;81.03;100995.34;4993891;28;20402;-72
2022/05/06 03:03:19;;;;;;;31.63;20.60;;;;;;;13.74;80.76;100995.34;4992393;28;20825;-72
2022/05/06 03:05:45;;;;;;;22.10;19.47;;;;;;;13.72;80.97;100994.78;4993036;28;20488;-72
2022/05/06 03:08:10;;;;;;;24.10;19.95;;;;;;;13.71;81.08;100988.50;4992415;28;20425;-72
2022/05/06 03:10:36;;;;;;;24.03;20.13;;;;;;;13.71;80.96;100999.41;4993545;28;20399;-72
2022/05/06 03:13:01;;;;;;;26.65;20.48;;;;;;;13.71;81.04;100996.69;4992368;28;20480;-72
2022/05/06 03:15:26;;;;;;;26.87;21.00;;;;;;;13.71;81.19;100999.41;4993689;28;20386;-72
2022/05/06 03:17:52;;;;;;;24.17;20.47;;;;;;;13.70;81.13;100995.03;4992581;28;20414;-72
2022/05/06 03:20:18;;;;;;;24.47;20.17;;;;;;;13.69;81.37;100992.56;4993314;28;20415;-72
2022/05/06 03:22:49;;;;;;;27.70;20.50;;;;;;;13.69;81.42;100989.84;4992723;28;20473;-72
2022/05/06 03:25:15;;;;;;;25.77;19.10;;;;;;;13.70;81.41;100986.06;4993205;28;20415;-72
2022/05/06 03:30:28;;;;;;;23.88;18.70;;;;;;;13.69;81.25;100987.94;4992107;28;20421;-72
2022/05/06 03:32:57;;;;;;;24.10;18.65;;;;;;;13.66;81.15;100988.44;4992708;28;20418;-72
2022/05/06 03:35:23;;;;;;;23.33;18.73;;;;;;;13.65;81.33;100986.78;4993404;28;20395;-72
2022/05/06 03:37:48;;;;;;;22.43;18.27;;;;;;;13.66;81.40;100988.44;4991962;28;20885;-72
2022/05/06 03:40:15;;;;;;;26.27;19.10;;;;;;;13.65;81.41;100992.25;4993304;28;20402;-72
2022/05/06 03:42:40;;;;;;;24.20;19.25;;;;;;;13.65;81.24;100985.97;4990552;28;20870;-72
2022/05/06 03:45:07;;;;;;;25.07;18.77;;;;;;;13.67;81.11;100981.06;4992960;28;20489;-72
2022/05/06 03:47:33;;;;;;;27.58;19.10;;;;;;;13.68;81.08;100980.00;4992035;28;20889;-72
2022/05/06 03:52:41;;;;;;;25.00;19.27;;;;;;;13.60;81.08;100983.97;4991396;28;20465;-72
2022/05/06 03:55:07;;;;;;;23.67;19.13;;;;;;;13.62;81.25;100989.19;4985309;28;20390;-72
2022/05/06 03:57:33;;;;;;;27.42;20.02;;;;;;;13.63;81.20;100986.22;4992719;28;20406;-72
2022/05/06 03:59:58;;;;;;;25.63;19.13;;;;;;;13.61;81.09;100996.53;4981709;28;20407;-72
2022/05/06 04:02:24;;;;;;;24.03;19.57;;;;;;;13.59;80.95;101004.16;4992931;28;20403;-72
2022/05/06 04:04:49;;;;;;;27.93;19.33;;;;;;;13.59;80.79;100997.88;4992834;28;20390;-72
2022/05/06 04:07:14;;;;;;;20.07;17.87;;;;;;;13.57;80.91;101000.84;5007201;28;20418;-72
2022/05/06 04:09:41;;;;;;;25.50;19.33;;;;;;;13.57;81.22;100995.38;4992752;28;20402;-72
2022/05/06 04:12:07;;;;;;;22.13;18.98;;;;;;;13.55;80.89;100999.44;4982521;28;20427;-72
2022/05/06 04:14:32;;;;;;;21.92;19.25;;;;;;;13.50;81.43;101001.00;4992206;28;20407;-72
2022/05/06 04:16:57;;;;;;;23.27;20.27;;;;;;;13.51;81.32;100997.22;4996576;28;20408;-72
2022/05/06 04:19:22;;;;;;;28.93;20.00;;;;;;;13.53;81.16;101008.69;4992536;28;20430;-72
2022/05/06 04:24:31;;;;;;;22.88;19.45;;;;;;;13.52;81.50;101007.06;4982780;28;20650;-72
2022/05/06 04:26:57;;;;;;;20.80;18.43;;;;;;;13.54;81.16;101014.94;4991352;28;20426;-72
2022/05/06 04:29:22;;;;;;;25.85;19.00;;;;;;;13.53;81.11;101018.78;4992060;28;20829;-72
2022/05/06 04:31:47;;;;;;;24.27;20.37;;;;;;;13.52;81.46;101017.94;4990910;28;20469;-72
2022/05/06 04:34:12;;;;;;;23.87;19.00;;;;;;;13.54;81.34;101023.13;4992024;28;20402;-72
2022/05/06 04:36:39;;;;;;;27.03;21.40;;;;;;;13.53;81.39;101021.50;4986340;28;20905;-72
2022/05/06 04:39:05;;;;;;;26.55;20.15;;;;;;;13.51;81.36;101019.00;4991419;28;20509;-72
2022/05/06 04:41:31;;;;;;;24.27;20.27;;;;;;;13.48;81.29;101021.41;4987134;28;20497;-72
2022/05/06 04:43:57;;;;;;;27.15;20.10;;;;;;;13.51;81.71;101029.91;4991609;28;20911;-72
2022/05/06 04:46:22;;;;;;;24.00;19.80;;;;;;;13.52;81.50;101034.28;4986586;28;20426;-72
2022/05/06 04:48:47;;;;;;;25.67;20.23;;;;;;;13.49;81.63;101034.78;4990527;28;20443;-71
2022/05/06 04:51:12;;;;;;;24.57;20.67;;;;;;;13.53;81.27;101037.84;4968548;28;20789;-72
2022/05/06 04:53:38;;;;;;;28.03;20.57;;;;;;;13.52;81.54;101039.72;4986623;28;20480;-72
2022/05/06 04:56:03;;;;;;;33.40;23.00;;;;;;;13.55;81.68;101043.00;4987506;28;20418;-72
2022/05/06 04:58:29;;;;;;;25.07;21.50;;;;;;;13.57;81.19;101049.06;4991423;28;20418;-71
2022/05/06 05:00:54;;;;;;;29.77;21.10;;;;;;;13.55;80.87;101048.47;4990951;28;20454;-72
2022/05/06 05:03:21;;;;;;;24.37;20.90;;;;;;;13.55;81.05;101051.19;4987807;28;20497;-71
2022/05/06 05:05:47;;;;;;;24.77;19.98;;;;;;;13.54;81.47;101050.34;4991245;28;20506;-72
2022/05/06 05:08:12;;;;;;;28.40;21.15;;;;;;;13.53;81.09;101054.16;4989047;28;20505;-72
2022/05/06 05:10:37;;;;;;;25.00;20.30;;;;;;;13.50;81.40;101060.13;4985233;28;20489;-72
2022/05/06 05:13:03;;;;;;;25.73;20.67;;;;;;;13.46;81.55;101058.97;4990305;28;20418;-72
2022/05/06 05:15:29;;;;;;;30.33;21.37;;;;;;;13.45;81.71;101063.56;4985128;28;20492;-71
2022/05/06 05:17:54;;;;;;;30.43;23.00;;;;;;;13.45;81.92;101054.59;4990741;28;20446;-72
2022/05/06 05:20:19;;;;;;;29.63;22.30;;;;;;;13.48;81.46;101054.06;4988401;28;20469;-72
2022/05/06 05:22:44;;;;;;;26.40;20.93;;;;;;;13.49;81.55;101059.28;4973823;28;20782;-72
2022/05/06 05:25:10;;;;;;;28.77;22.00;;;;;;;13.49;81.48;101056.56;4988251;28;20425;-72
2022/05/06 05:27:36;;;;;;;23.30;20.53;;;;;;;13.51;81.48;101062.56;4991125;28;20783;-71
2022/05/06 05:30:07;;;;;;;26.30;21.20;;;;;;;13.52;81.55;101060.69;4998886;28;20449;-71
2022/05/06 05:32:33;;;;;;;26.92;21.17;;;;;;;13.49;81.49;101053.84;4989090;28;20564;-71
2022/05/06 05:34:58;;;;;;;28.38;21.05;;;;;;;13.50;81.92;101060.91;4989128;28;20810;-71
2022/05/06 05:37:24;;;;;;;27.38;21.73;;;;;;;13.54;81.81;101063.97;4990000;28;20410;-73
2022/05/06 05:39:49;;;;;;;26.17;22.33;;;;;;;13.57;81.81;101065.38;4985652;28;20412;-72
2022/05/06 05:42:24;;;;;;;29.57;22.63;;;;;;;13.58;81.82;101058.84;4985588;28;20758;-72
2022/05/06 05:50:18;;;;;;;25.45;21.70;;;;;;;13.66;81.75;101072.06;5005866;28;20479;-72
2022/05/06 05:52:43;;;;;;;30.43;22.43;;;;;;;13.68;81.67;101069.88;4993807;28;20894;-72
2022/05/06 05:55:08;;;;;;;26.30;21.43;;;;;;;13.71;81.78;101074.84;4990410;28;20418;-72
2022/05/06 05:57:34;;;;;;;27.53;21.67;;;;;;;13.73;81.73;101072.72;4992751;28;20418;-72
2022/05/06 05:59:59;;;;;;;28.30;21.07;;;;;;;13.76;81.54;101069.47;4991270;28;20415;-72
2022/05/06 06:02:25;;;;;;;24.13;20.17;;;;;;;13.79;81.59;101071.69;4992537;28;20406;-72
2022/05/06 06:04:55;;;;;;;25.03;20.00;;;;;;;13.82;81.45;101065.75;4985936;28;20412;-73
2022/05/06 06:07:20;;;;;;;24.38;19.65;;;;;;;13.87;81.85;101068.53;4971178;28;20476;-72
2022/05/06 06:09:45;;;;;;;24.03;19.93;;;;;;;13.88;81.38;101071.00;4976402;28;20801;-72
2022/05/06 06:12:10;;;;;;;23.97;19.23;;;;;;;13.90;81.34;101065.28;4993661;28;20409;-72
2022/05/06 06:14:36;;;;;;;23.87;18.03;;;;;;;13.92;81.18;101071.34;4994671;28;20464;-72
2022/05/06 06:17:02;;;;;;;22.33;17.30;;;;;;;13.92;80.81;101076.78;4993732;28;20429;-72
2022/05/06 06:19:28;;;;;;;25.55;17.65;;;;;;;13.91;80.21;101078.69;4991928;28;20489;-72
2022/05/06 06:21:53;;;;;;;20.08;15.52;;;;;;;13.94;80.33;101071.91;4973761;28;20435;-71
2022/05/06 06:24:19;;;;;;;17.43;14.37;;;;;;;13.96;79.92;101076.00;5009574;28;20457;-72
2022/05/06 06:26:45;;;;;;;18.73;14.45;;;;;;;13.97;80.08;101074.13;4994449;28;20772;-72
2022/05/06 06:29:10;;;;;;;14.90;13.18;;;;;;;13.99;79.38;101082.88;4994659;28;20418;-72
2022/05/06 06:31:37;;;;;;;16.10;12.67;;;;;;;13.95;79.11;101074.38;4992379;28;20500;-72
2022/05/06 06:34:02;;;;;;;14.10;12.27;;;;;;;13.97;78.85;101076.84;4991836;28;20429;-73
2022/05/06 06:36:28;;;;;;;15.83;12.37;;;;;;;14.00;78.92;101087.22;4991707;28;20410;-72
2022/05/06 06:38:53;;;;;;;13.57;12.03;;;;;;;14.03;78.96;101078.53;4992618;28;20406;-73
2022/05/06 06:41:20;;;;;;;12.60;10.88;;;;;;;14.06;78.91;101088.16;4989721;28;20446;-73
2022/05/06 06:43:46;;;;;;;12.80;10.10;;;;;;;14.09;78.51;101083.00;4986452;28;20457;-73
2022/05/06 06:46:11;;;;;;;15.75;10.15;;;;;;;14.11;78.45;101089.03;4994084;28;20496;-73
2022/05/06 06:48:40;;;;;;;13.10;9.23;;;;;;;14.13;77.26;101092.31;4985563;28;20411;-73
2022/05/06 06:51:05;;;;;;;12.30;9.80;;;;;;;14.14;77.66;101091.25;4987329;28;20764;-73
2022/05/06 06:53:30;;;;;;;10.90;9.60;;;;;;;14.10;76.66;101098.28;4976704;28;20391;-73
2022/05/06 06:55:56;;;;;;;13.38;9.27;;;;;;;14.11;76.59;101097.19;4991052;28;20407;-72
2022/05/06 06:58:21;;;;;;;10.67;8.63;;;;;;;14.13;76.71;101102.41;4972295;28;20412;-73
2022/05/06 07:00:46;;;;;;;18.00;9.57;;;;;;;14.13;76.28;101100.50;4993511;28;20395;-73
2022/05/06 07:03:12;;;;;;;11.93;8.80;;;;;;;14.11;76.11;101097.19;4993775;28;20430;-73
2022/05/06 07:11:52;;;;;;;11.02;8.57;;;;;;;14.11;75.52;101090.91;4992903;28;20418;-73
2022/05/06 07:13:51;;;;;;;12.07;8.13;;;;;;;14.15;74.00;101092.91;4993162;28;20394;-73
2022/05/06 07:16:16;;;;;;;10.77;8.98;;;;;;;14.18;73.61;101097.00;4992233;28;20406;-73
2022/05/06 07:18:42;;;;;;;12.80;8.77;;;;;;;14.19;73.20;101102.22;4993595;28;20390;-73
2022/05/06 07:21:07;;;;;;;13.20;8.60;;;;;;;14.21;73.07;101102.78;4993262;28;20386;-73
2022/05/06 07:23:32;;;;;;;8.30;7.40;;;;;;;14.25;73.58;101094.94;4993326;28;20394;-73
2022/05/06 07:25:57;;;;;;;12.33;8.93;;;;;;;14.30;73.89;101093.09;4993198;28;20418;-72
2022/05/06 07:28:23;;;;;;;10.40;8.35;;;;;;;14.36;73.10;101096.72;4992768;28;20797;-72
2022/05/06 07:30:48;;;;;;;11.07;7.97;;;;;;;14.50;72.31;101095.25;4992894;28;20410;-73
2022/05/06 07:33:13;;;;;;;13.27;8.80;;;;;;;14.47;72.10;101093.88;4993119;28;20403;-72
2022/05/06 07:35:39;;;;;;;11.63;8.40;;;;;;;14.49;72.20;101097.16;4992500;28;20411;-73
2022/05/06 07:38:04;;;;;;;9.23;8.30;;;;;;;14.43;71.84;101109.09;4993009;28;20394;-73
2022/05/06 07:40:29;;;;;;;12.07;8.63;;;;;;;14.40;71.34;101100.59;4975655;28;20410;-73
2022/05/06 07:42:55;;;;;;;10.93;8.10;;;;;;;14.42;72.07;101107.44;4992868;28;20399;-73
2022/05/06 07:45:20;;;;;;;12.53;7.73;;;;;;;14.43;72.65;101106.38;4980637;28;20406;-73
2022/05/06 07:47:45;;;;;;;8.40;7.60;;;;;;;14.41;71.90;101104.97;4990900;28;20877;-73
2022/05/06 07:50:11;;;;;;;11.87;8.10;;;;;;;14.41;72.67;101102.25;4973670;28;20392;-73
2022/05/06 07:52:37;;;;;;;10.57;8.00;;;;;;;14.37;72.73;101107.38;4991558;28;20395;-73
2022/05/06 07:55:02;;;;;;;9.70;8.13;;;;;;;14.44;72.49;101108.03;4992660;28;20801;-75
2022/05/06 07:57:27;;;;;;;9.67;7.53;;;;;;;14.49;71.78;101105.34;4990862;28;20402;-73
2022/05/06 07:59:53;;;;;;;12.85;8.10;;;;;;;14.49;71.80;101108.06;4986548;28;20877;-73
2022/05/06 08:05:02;;;;;;;11.32;8.25;;;;;;;14.56;70.39;101113.31;4990875;28;20421;-73
2022/05/06 08:07:27;;;;;;;10.60;8.27;;;;;;;14.60;70.03;101113.63;4992612;28;20411;-73
2022/05/06 08:09:53;;;;;;;13.60;7.40;;;;;;;14.65;70.10;101111.81;4991810;28;20485;-73
2022/05/06 08:12:18;;;;;;;8.43;7.40;;;;;;;14.74;70.01;101115.72;4992572;28;20438;-73
2022/05/06 08:14:44;;;;;;;9.00;7.30;;;;;;;14.79;69.46;101113.03;4992545;28;20456;-73
2022/05/06 08:17:10;;;;;;;9.95;6.70;;;;;;;14.83;69.86;101114.19;4992620;28;20426;-73
2022/05/06 08:19:35;;;;;;;10.80;7.10;;;;;;;14.87;69.53;101117.22;4991692;28;20880;-73
2022/05/06 08:22:00;;;;;;;9.77;7.63;;;;;;;14.94;68.99;101117.84;4992166;28;20398;-73
2022/05/06 08:24:27;;;;;;;8.43;6.83;;;;;;;15.01;70.19;101115.75;4973503;28;20414;-73
2022/05/06 08:26:53;;;;;;;11.70;7.17;;;;;;;15.08;69.83;101125.34;4989606;28;20908;-72
2022/05/06 08:29:19;;;;;;;10.32;7.35;;;;;;;15.17;69.79;101130.34;4988046;28;20513;-73
2022/05/06 08:31:44;;;;;;;11.47;7.90;;;;;;;15.21;68.81;101128.75;4992427;28;20481;-73
2022/05/06 08:34:11;;;;;;;8.43;7.60;;;;;;;15.26;69.84;101124.16;4992195;28;20452;-73
2022/05/06 08:36:39;;;;;;;8.93;7.25;;;;;;;15.35;69.01;101132.69;4990317;28;20414;-73
2022/05/06 08:39:06;;;;;;;8.32;7.25;;;;;;;15.42;68.82;101131.41;4991411;28;20414;-73
2022/05/06 08:41:31;;;;;;;8.60;7.60;;;;;;;15.49;68.36;101131.19;4991557;28;20777;-73
2022/05/06 08:50:50;;;;;;;9.53;7.37;;;;;;;15.57;68.40;101133.47;4992018;28;20390;-73
2022/05/06 08:52:25;;;;;;;15.68;7.47;;;;;;;15.96;66.24;101128.53;4987947;28;20821;-72
2022/05/06 08:54:51;;;;;;;9.65;7.00;;;;;;;15.97;64.67;101127.47;4992112;28;20391;-72
2022/05/06 08:57:16;;;;;;;9.90;6.72;;;;;;;16.09;65.81;101133.53;4989790;28;20745;-73
2022/05/06 08:59:42;;;;;;;8.70;6.50;;;;;;;16.17;65.07;101133.03;4991480;28;20398;-73
2022/05/06 09:02:07;;;;;;;8.37;6.60;;;;;;;16.25;63.98;101132.53;4991834;28;20468;-73
2022/05/06 09:04:39;;;;;;;9.70;7.07;;;;;;;16.34;64.38;101127.38;4992110;28;20765;-73
2022/05/06 09:07:21;;;;;;;7.82;7.10;;;;;;;16.37;64.27;101130.38;4990453;28;20513;-73
2022/05/06 09:10:13;;;;;;;9.93;6.65;;;;;;;16.40;64.47;101120.84;4991697;28;20394;-73
2022/05/06 09:12:42;;;;;;;8.90;6.90;;;;;;;16.48;64.32;101134.00;4991734;28;20464;-72
2022/05/06 09:17:59;;;;;;;9.93;7.13;;;;;;;16.59;64.12;101130.25;4990658;28;20509;-73
2022/05/06 09:20:26;;;;;;;10.02;6.40;;;;;;;16.71;63.11;101135.47;4991032;28;20440;-73
2022/05/06 09:22:52;;;;;;;9.00;6.47;;;;;;;16.90;62.17;101125.66;4981948;28;20414;-73
2022/05/06 09:25:37;;;;;;;15.05;7.00;;;;;;;17.07;62.13;101131.72;4987094;28;20414;-73
2022/05/06 09:28:03;;;;;;;7.55;6.22;;;;;;;17.14;62.15;101137.78;4986449;28;20411;-73
2022/05/06 09:30:28;;;;;;;6.88;5.90;;;;;;;17.20;61.75;101133.13;4991361;28;20448;-73
2022/05/06 09:32:54;;;;;;;6.90;5.90;;;;;;;17.35;61.31;101133.16;4991608;28;20406;-73
2022/05/06 09:35:19;;;;;;;7.03;6.28;;;;;;;17.50;61.00;101138.63;4992777;28;20482;-72
2022/05/06 09:37:47;;;;;;;6.57;5.80;;;;;;;17.49;60.05;101135.06;4995619;28;20398;-73
2022/05/06 09:40:18;;;;;;;17.77;6.13;;;;;;;17.46;60.21;101130.13;4987882;28;20404;-73
2022/05/06 09:42:57;;;;;;;7.38;5.68;;;;;;;17.59;60.39;101128.78;4976548;28;20404;-73
2022/05/06 09:45:38;;;;;;;7.20;5.78;;;;;;;17.83;60.18;101129.03;4989822;28;20542;-73
2022/05/06 09:48:04;;;;;;;6.90;5.63;;;;;;;18.01;60.30;101131.19;4994882;28;20410;-73
2022/05/06 09:50:38;;;;;;;7.20;5.22;;;;;;;18.21;58.63;101120.16;4995371;28;20400;-73
2022/05/06 09:53:05;;;;;;;6.10;5.32;;;;;;;18.48;58.14;101123.34;4991683;28;20925;-73
2022/05/06 09:55:31;;;;;;;6.90;5.00;;;;;;;18.72;58.01;101111.72;4994809;28;20409;-73
2022/05/06 09:57:59;;;;;;;11.73;5.35;;;;;;;19.12;56.99;101120.56;4993795;28;20983;-73
2022/05/06 10:00:26;;;;;;;5.20;4.35;;;;;;;19.57;56.53;101124.06;4992666;28;20411;-73
2022/05/06 10:02:51;;;;;;;7.18;4.70;;;;;;;19.88;55.73;101119.09;4988886;28;20503;-73
2022/05/06 10:05:16;;;;;;;7.00;4.38;;;;;;;20.03;53.92;101121.69;4992017;28;20403;-73
2022/05/06 10:07:46;;;;;;;6.77;3.87;;;;;;;20.16;53.67;101124.56;4993706;28;20414;-73
2022/05/06 10:10:21;;;;;;;4.43;3.55;;;;;;;20.43;52.96;101125.94;4993653;28;20741;-73
2022/05/06 10:12:53;;;;;;;7.75;4.50;;;;;;;20.50;51.80;101120.91;4994948;28;20395;-73
2022/05/06 10:15:21;;;;;;;5.07;4.18;;;;;;;20.64;51.90;101127.34;4994660;28;20394;-73
2022/05/06 10:17:59;;;;;;;4.57;4.18;;;;;;;20.61;50.22;101117.69;4990117;28;20394;-73
2022/05/06 10:20:34;;;;;;;8.48;4.80;;;;;;;20.71;50.30;101120.31;4962879;28;20395;-73
2022/05/06 10:23:02;;;;;;;7.83;4.17;;;;;;;21.13;50.57;101113.16;4977327;28;20394;-73
2022/05/06 10:25:43;;;;;;;7.07;4.57;;;;;;;21.72;49.73;101115.19;4963517;28;20459;-73
2022/05/06 10:34:09;;;;;;;5.23;4.70;;;;;;;22.20;48.63;101115.69;4992422;28;20408;-73
2022/05/06 10:36:46;;;;;;;6.55;4.90;;;;;;;22.48;47.73;101116.50;4993982;28;20398;-70
2022/05/06 10:39:33;;;;;;;4.53;4.03;;;;;;;22.52;46.92;101114.78;4993325;28;20399;-70
2022/05/06 10:42:17;;;;;;;4.88;4.00;;;;;;;22.53;45.77;101108.91;4978701;28;20394;-73
2022/05/06 10:44:52;;;;;;;5.38;3.90;;;;;;;22.77;45.49;101114.25;4994275;28;20401;-73
2022/05/06 10:47:20;;;;;;;4.43;3.25;;;;;;;23.40;43.94;101107.78;4993172;28;20928;-73
2022/05/06 10:49:46;;;;;;;4.57;2.80;;;;;;;23.66;42.13;101104.09;4992715;28;21171;-73
2022/05/06 10:52:20;;;;;;;5.03;3.10;;;;;;;23.87;41.35;101103.53;4994108;28;20806;-73
2022/05/06 10:54:54;;;;;;;5.47;2.90;;;;;;;24.13;41.00;101098.97;4994082;28;20395;-73
2022/05/06 10:57:21;;;;;;;3.50;2.60;;;;;;;24.51;40.86;101097.28;4993611;28;20955;-73
2022/05/06 10:59:57;;;;;;;6.22;2.90;;;;;;;24.84;38.69;101096.88;4993123;28;20405;-73
2022/05/06 11:02:27;;;;;;;3.78;2.80;;;;;;;25.22;36.93;101104.25;4984556;28;20406;-73
2022/05/06 11:04:53;;;;;;;5.25;2.40;;;;;;;25.38;38.23;101096.22;4993550;28;20488;-71
2022/05/06 11:07:18;;;;;;;5.35;2.30;;;;;;;25.35;37.02;101094.13;4993097;28;20418;-71
2022/05/06 11:09:45;;;;;;;4.23;2.17;;;;;;;25.13;37.28;101091.50;4993094;28;20413;-71
2022/05/06 11:12:10;;;;;;;5.05;2.03;;;;;;;25.34;37.09;101088.88;4989813;28;20405;-72
2022/05/06 11:14:36;;;;;;;6.97;2.17;;;;;;;25.66;36.37;101085.56;4993699;28;20765;-73
2022/05/06 11:17:18;;;;;;;3.70;1.53;;;;;;;25.86;35.80;101089.59;4984897;28;20422;-73
2022/05/06 11:19:43;;;;;;;2.00;1.70;;;;;;;25.72;35.07;101084.25;4991355;28;20912;-71
2022/05/06 11:22:10;;;;;;;5.18;1.63;;;;;;;25.53;33.88;101084.63;4992015;28;20406;-71
2022/05/06 11:24:36;;;;;;;1.42;1.10;;;;;;;25.48;34.27;101087.56;4988368;28;20422;-71
2022/05/06 11:27:13;;;;;;;1.50;1.00;;;;;;;25.51;34.23;101080.56;4990110;28;20431;-71
2022/05/06 11:29:50;;;;;;;8.80;2.35;;;;;;;25.22;33.93;101082.06;4986914;28;20410;-71
2022/05/06 11:32:17;;;;;;;2.28;1.48;;;;;;;25.21;34.23;101080.41;4992001;28;20406;-71
2022/05/06 11:35:09;;;;;;;6.03;1.52;;;;;;;25.12;33.05;101079.63;4988329;28;20417;-71
2022/05/06 11:37:39;;;;;;;1.50;0.90;;;;;;;25.05;33.16;101082.06;4992631;28;20404;-71
2022/05/06 11:40:32;;;;;;;2.85;1.40;;;;;;;25.03;32.76;101081.56;4992635;28;20406;-71
2022/05/06 11:42:58;;;;;;;6.25;1.50;;;;;;;24.99;33.07;101079.78;4978081;28;20430;-71
2022/05/06 11:48:10;;;;;;;0.85;0.75;;;;;;;24.72;33.24;101076.13;4991122;28;20440;-73
2022/05/06 11:50:38;;;;;;;3.55;1.10;;;;;;;25.07;32.71;101074.22;4992189;28;20403;-74
2022/05/06 11:53:08;;;;;;;2.20;1.40;;;;;;;25.09;34.17;101073.91;4988930;28;20425;-71
2022/05/06 11:55:35;;;;;;;1.17;0.77;;;;;;;25.09;33.22;101066.38;4976201;28;20426;-72
2022/05/06 11:58:03;;;;;;;3.63;1.02;;;;;;;25.08;32.72;101069.50;4984926;28;20465;-73
2022/05/06 12:00:29;;;;;;;4.15;1.20;;;;;;;24.89;33.87;101072.59;4992234;28;20488;-73